createdAt,value
2022-09-28T00:01:56.431Z,9.51
2022-09-28T00:05:01.241Z,9.50
2022-09-28T00:08:05.520Z,9.50
2022-09-28T00:11:12.895Z,9.50
2022-09-28T00:14:16.967Z,9.47
2022-09-28T00:17:22.788Z,9.40
2022-09-28T00:20:26.891Z,9.37
2022-09-28T00:23:31.560Z,9.40
2022-09-28T00:26:35.765Z,9.40
2022-09-28T00:29:39.927Z,9.45
2022-09-28T00:32:43.805Z,9.49
2022-09-28T00:35:55.300Z,9.52
2022-09-28T00:38:59.766Z,9.60
2022-09-28T00:42:11.068Z,9.64
2022-09-28T00:45:15.069Z,9.58
2022-09-28T00:48:18.808Z,9.54
2022-09-28T00:51:25.623Z,9.46
2022-09-28T00:54:30.110Z,9.40
2022-09-28T00:57:35.388Z,9.43
2022-09-28T01:00:42.970Z,9.41
2022-09-28T01:03:48.775Z,9.38
2022-09-28T01:06:52.920Z,9.39
2022-09-28T01:09:57.021Z,9.39
2022-09-28T01:13:01.478Z,9.41
2022-09-28T01:16:24.879Z,9.39
2022-09-28T01:19:51.356Z,9.32
2022-09-28T01:22:55.093Z,9.30
2022-09-28T01:26:22.330Z,9.30
2022-09-28T01:29:54.151Z,9.30
2022-09-28T01:33:10.655Z,9.25
2022-09-28T01:36:36.652Z,9.19
2022-09-28T01:39:46.270Z,9.19
2022-09-28T01:42:55.828Z,9.20
2022-09-28T01:46:11.151Z,9.18
2022-09-28T01:49:20.840Z,9.09
2022-09-28T01:52:32.420Z,9.07
2022-09-28T01:55:47.978Z,8.98
2022-09-28T01:58:57.558Z,8.92
2022-09-28T02:02:11.239Z,8.94
2022-09-28T02:05:20.921Z,8.85
2022-09-28T02:08:33.268Z,8.81
2022-09-28T02:11:41.673Z,8.84
2022-09-28T02:14:49.161Z,8.73
2022-09-28T02:17:54.587Z,8.66
2022-09-28T02:21:41.093Z,8.68
2022-09-28T02:24:56.518Z,8.62
2022-09-28T02:28:03.633Z,8.61
2022-09-28T02:31:07.697Z,8.62
2022-09-28T02:34:11.805Z,8.61
2022-09-28T02:37:16.150Z,8.64
2022-09-28T02:40:26.106Z,8.61
2022-09-28T02:43:41.034Z,8.62
2022-09-28T02:46:59.944Z,8.56
2022-09-28T02:50:21.502Z,8.54
2022-09-28T02:53:42.938Z,8.55
2022-09-28T02:57:06.945Z,8.50
2022-09-28T03:00:22.857Z,8.49
2022-09-28T03:03:45.644Z,8.50
2022-09-28T03:07:03.211Z,8.50
2022-09-28T03:10:19.469Z,8.50
2022-09-28T03:13:25.525Z,8.51
2022-09-28T03:16:32.000Z,8.51
2022-09-28T03:19:36.781Z,8.51
2022-09-28T03:22:40.751Z,8.57
2022-09-28T03:25:44.667Z,8.56
2022-09-28T03:28:48.448Z,8.60
2022-09-28T03:31:52.300Z,8.67
2022-09-28T03:34:56.683Z,8.63
2022-09-28T03:38:00.898Z,8.68
2022-09-28T03:41:05.198Z,8.76
2022-09-28T03:44:09.360Z,8.88
2022-09-28T03:47:13.969Z,8.89
2022-09-28T03:50:17.786Z,8.94
2022-09-28T03:53:22.083Z,8.82
2022-09-28T03:56:26.756Z,8.74
2022-09-28T03:59:31.210Z,8.85
2022-09-28T04:02:35.449Z,8.90
2022-09-28T04:05:39.424Z,8.76
2022-09-28T04:08:43.645Z,8.84
2022-09-28T04:12:03.273Z,8.82
2022-09-28T04:15:08.335Z,8.81
2022-09-28T04:18:13.555Z,8.84
2022-09-28T04:21:19.574Z,8.81
2022-09-28T04:24:23.624Z,8.82
2022-09-28T04:27:49.128Z,8.93
2022-09-28T04:30:53.274Z,8.94
2022-09-28T04:33:57.832Z,8.91
2022-09-28T04:37:01.899Z,8.89
2022-09-28T04:40:06.511Z,8.93
2022-09-28T04:43:10.343Z,8.96
2022-09-28T04:46:14.888Z,8.93
2022-09-28T04:49:19.161Z,8.89
2022-09-28T04:52:23.290Z,8.93
2022-09-28T04:55:32.214Z,8.93
2022-09-28T04:58:36.602Z,8.94
2022-09-28T05:01:40.657Z,9.01
2022-09-28T05:04:44.742Z,9.04
2022-09-28T05:07:48.621Z,9.10
2022-09-28T05:11:00.875Z,9.19
2022-09-28T05:14:05.779Z,9.20
2022-09-28T05:17:10.550Z,9.20
2022-09-28T05:20:14.543Z,9.26
2022-09-28T05:23:18.512Z,9.27
2022-09-28T05:26:23.324Z,9.24
2022-09-28T05:29:31.950Z,9.22
2022-09-28T05:32:40.664Z,9.20
2022-09-28T05:35:44.386Z,9.23
2022-09-28T05:38:48.493Z,9.29
2022-09-28T05:41:52.500Z,9.31
2022-09-28T05:44:58.227Z,9.24
2022-09-28T05:48:02.225Z,9.33
2022-09-28T05:51:06.639Z,9.34
2022-09-28T05:54:11.091Z,9.41
2022-09-28T05:57:15.626Z,9.45
2022-09-28T06:00:19.920Z,9.46
2022-09-28T06:03:24.028Z,9.44
2022-09-28T06:06:28.039Z,9.46
2022-09-28T06:09:31.941Z,9.46
2022-09-28T06:12:35.867Z,9.48
2022-09-28T06:15:42.499Z,9.48
2022-09-28T06:18:46.348Z,9.48
2022-09-28T06:21:50.262Z,9.54
2022-09-28T06:24:54.195Z,9.57
2022-09-28T06:27:59.306Z,9.58
2022-09-28T06:31:03.497Z,9.58
2022-09-28T06:34:09.483Z,9.54
2022-09-28T06:37:13.415Z,9.55
2022-09-28T06:40:17.842Z,9.50
2022-09-28T06:43:22.544Z,9.50
2022-09-28T06:46:27.067Z,9.52
2022-09-28T06:49:31.449Z,9.53
2022-09-28T06:52:35.193Z,9.55
2022-09-28T06:55:43.839Z,9.55
2022-09-28T06:58:48.352Z,9.57
2022-09-28T07:01:52.336Z,9.65
2022-09-28T07:04:56.975Z,9.63
2022-09-28T07:08:01.919Z,9.66
2022-09-28T07:11:07.663Z,9.65
2022-09-28T07:14:24.509Z,9.67
2022-09-28T07:17:49.322Z,9.66
2022-09-28T07:20:59.145Z,9.67
2022-09-28T07:24:03.371Z,9.67
2022-09-28T07:27:08.030Z,9.69
2022-09-28T07:30:12.324Z,9.67
2022-09-28T07:33:17.679Z,9.72
2022-09-28T07:36:22.730Z,9.74
2022-09-28T07:39:26.856Z,9.78
2022-09-28T07:42:31.151Z,9.69
2022-09-28T07:45:36.023Z,9.79
2022-09-28T07:48:41.685Z,9.84
2022-09-28T07:51:45.714Z,9.92
2022-09-28T07:54:52.081Z,9.90
2022-09-28T07:58:01.116Z,9.94
2022-09-28T08:01:08.480Z,9.90
2022-09-28T08:04:12.417Z,9.86
2022-09-28T08:07:21.556Z,9.79
2022-09-28T08:10:27.319Z,9.81
2022-09-28T08:13:31.457Z,9.83
2022-09-28T08:16:35.473Z,9.83
2022-09-28T08:19:57.882Z,9.81
2022-09-28T08:23:09.742Z,9.76
2022-09-28T08:26:15.657Z,9.68
2022-09-28T08:29:20.374Z,9.64
2022-09-28T08:32:24.738Z,9.65
2022-09-28T08:35:28.521Z,9.59
2022-09-28T08:38:32.649Z,9.59
2022-09-28T08:41:46.687Z,9.59
2022-09-28T08:44:57.905Z,9.61
2022-09-28T08:48:36.690Z,9.67
2022-09-28T08:52:05.655Z,9.70
2022-09-28T08:55:28.637Z,9.73
2022-09-28T08:58:37.655Z,9.77
2022-09-28T09:01:48.826Z,9.82
2022-09-28T09:04:52.919Z,9.79
2022-09-28T09:08:26.149Z,9.81
2022-09-28T09:12:04.146Z,9.88
2022-09-28T09:15:40.574Z,9.91
2022-09-28T09:19:05.830Z,9.94
2022-09-28T09:22:17.562Z,10.06
2022-09-28T09:25:28.433Z,10.04
2022-09-28T09:28:55.426Z,10.11
2022-09-28T09:32:05.644Z,10.04
2022-09-28T09:35:20.639Z,10.09
2022-09-28T09:38:47.606Z,10.13
2022-09-28T09:42:10.393Z,10.35
2022-09-28T09:45:35.584Z,10.49
2022-09-28T09:48:47.224Z,10.61
2022-09-28T09:52:11.163Z,10.74
2022-09-28T09:55:21.164Z,10.77
2022-09-28T09:58:36.392Z,10.81
2022-09-28T10:01:41.663Z,10.99
2022-09-28T10:04:48.978Z,10.94
2022-09-28T10:08:08.375Z,11.31
2022-09-28T10:11:27.383Z,11.49
2022-09-28T10:14:31.534Z,11.72
2022-09-28T10:17:37.241Z,11.75
2022-09-28T10:20:45.430Z,11.82
2022-09-28T10:23:58.326Z,11.85
2022-09-28T10:27:15.439Z,11.56
2022-09-28T10:30:25.309Z,11.37
2022-09-28T10:33:35.325Z,11.06
2022-09-28T10:37:01.025Z,10.83
2022-09-28T10:40:06.105Z,10.54
2022-09-28T10:43:38.421Z,10.56
2022-09-28T10:46:42.337Z,10.64
2022-09-28T10:49:49.424Z,10.61
2022-09-28T10:52:53.960Z,10.56
2022-09-28T10:56:02.822Z,10.43
2022-09-28T10:59:23.565Z,10.39
2022-09-28T11:02:37.317Z,10.35
2022-09-28T11:05:52.576Z,10.43
2022-09-28T11:09:00.755Z,10.54
2022-09-28T11:12:06.733Z,10.65
2022-09-28T11:15:20.611Z,10.72
2022-09-28T11:18:32.350Z,10.84
2022-09-28T11:21:43.875Z,10.93
2022-09-28T11:24:49.446Z,11.00
2022-09-28T11:27:53.143Z,11.10
2022-09-28T11:30:57.664Z,11.14
2022-09-28T11:34:47.823Z,11.18
2022-09-28T11:38:03.403Z,11.21
2022-09-28T11:41:31.625Z,11.24
2022-09-28T11:44:44.513Z,11.44
2022-09-28T11:48:16.394Z,11.43
2022-09-28T11:51:42.109Z,11.38
2022-09-28T11:54:59.514Z,11.45
2022-09-28T11:58:14.229Z,11.58
2022-09-28T12:01:21.115Z,11.52
2022-09-28T12:04:33.342Z,11.43
2022-09-28T12:07:43.913Z,11.43
2022-09-28T12:11:03.086Z,11.37
2022-09-28T12:14:18.641Z,11.46
2022-09-28T12:17:42.877Z,11.63
2022-09-28T12:20:52.092Z,11.68
2022-09-28T12:24:03.651Z,11.69
2022-09-28T12:27:16.802Z,11.71
2022-09-28T12:30:25.197Z,11.81
2022-09-28T12:33:29.265Z,11.76
2022-09-28T12:36:55.256Z,11.81
2022-09-28T12:40:30.991Z,11.88
2022-09-28T12:43:54.577Z,11.82
2022-09-28T12:47:09.626Z,11.80
2022-09-28T12:50:39.924Z,11.70
2022-09-28T12:53:52.913Z,11.49
2022-09-28T12:57:21.398Z,11.30
2022-09-28T13:00:49.385Z,11.23
2022-09-28T13:04:08.307Z,11.14
2022-09-28T13:07:21.365Z,11.08
2022-09-28T13:10:41.786Z,11.20
2022-09-28T13:14:20.139Z,11.30
2022-09-28T13:18:03.428Z,11.38
2022-09-28T13:21:12.925Z,11.51
2022-09-28T13:24:32.732Z,11.51
2022-09-28T13:28:08.243Z,11.51
2022-09-28T13:31:17.355Z,11.51
2022-09-28T13:34:24.925Z,11.40
2022-09-28T13:37:29.667Z,11.29
2022-09-28T13:41:06.081Z,11.17
2022-09-28T13:44:22.169Z,11.15
2022-09-28T13:47:40.001Z,11.35
2022-09-28T13:51:21.700Z,11.53
2022-09-28T13:54:39.471Z,11.48
2022-09-28T13:58:04.398Z,11.40
2022-09-28T14:01:16.708Z,11.34
2022-09-28T14:04:45.252Z,11.56
2022-09-28T14:08:18.002Z,11.72
2022-09-28T14:11:34.721Z,11.57
2022-09-28T14:14:50.917Z,11.57
2022-09-28T14:18:07.323Z,11.66
2022-09-28T14:21:32.871Z,11.54
2022-09-28T14:24:45.131Z,11.34
2022-09-28T14:28:33.919Z,11.26
2022-09-28T14:31:43.547Z,11.23
2022-09-28T14:34:56.472Z,11.18
2022-09-28T14:38:31.547Z,11.16
2022-09-28T14:41:44.670Z,11.14
2022-09-28T14:45:06.663Z,11.11
2022-09-28T14:48:15.295Z,11.09
2022-09-28T14:51:32.911Z,11.08
2022-09-28T14:54:50.541Z,11.06
2022-09-28T14:57:59.162Z,11.05
2022-09-28T15:01:10.705Z,11.02
2022-09-28T15:04:15.361Z,11.05
2022-09-28T15:07:29.699Z,11.07
2022-09-28T15:10:37.051Z,11.17
2022-09-28T15:13:42.503Z,11.26
2022-09-28T15:16:46.404Z,11.32
2022-09-28T15:20:06.676Z,11.33
2022-09-28T15:23:34.619Z,11.15
2022-09-28T15:26:38.464Z,11.05
2022-09-28T15:29:56.523Z,10.97
2022-09-28T15:33:21.105Z,10.99
2022-09-28T15:36:28.457Z,11.06
2022-09-28T15:39:34.746Z,11.11
2022-09-28T15:42:38.759Z,11.14
2022-09-28T15:45:44.629Z,11.18
2022-09-28T15:48:57.046Z,11.16
2022-09-28T15:52:03.078Z,11.13
2022-09-28T15:55:19.046Z,11.05
2022-09-28T15:58:24.265Z,10.92
2022-09-28T16:01:37.817Z,10.85
2022-09-28T16:04:50.314Z,10.82
2022-09-28T16:07:56.202Z,10.77
2022-09-28T16:11:20.141Z,10.71
2022-09-28T16:14:27.069Z,10.69
2022-09-28T16:17:33.583Z,10.66
2022-09-28T16:20:40.150Z,10.62
2022-09-28T16:23:51.020Z,10.62
2022-09-28T16:27:29.122Z,10.65
2022-09-28T16:30:34.636Z,10.60
2022-09-28T16:33:48.816Z,10.58
2022-09-28T16:36:52.680Z,10.60
2022-09-28T16:39:56.389Z,10.63
2022-09-28T16:43:04.125Z,10.55
2022-09-28T16:46:12.677Z,10.50
2022-09-28T16:49:18.754Z,10.51
2022-09-28T16:52:42.794Z,10.46
2022-09-28T16:55:47.948Z,10.42
2022-09-28T16:58:51.989Z,10.42
2022-09-28T17:01:56.699Z,10.39
2022-09-28T17:05:00.923Z,10.43
2022-09-28T17:08:05.210Z,10.49
2022-09-28T17:11:16.854Z,10.49
2022-09-28T17:14:24.164Z,10.52
2022-09-28T17:17:31.010Z,10.50
2022-09-28T17:20:37.525Z,10.51
2022-09-28T17:23:42.733Z,10.53
2022-09-28T17:26:49.042Z,10.54
2022-09-28T17:29:53.149Z,10.54
2022-09-28T17:32:57.136Z,10.49
2022-09-28T17:36:04.666Z,10.43
2022-09-28T17:39:14.080Z,10.35
2022-09-28T17:42:18.168Z,10.29
2022-09-28T17:45:26.916Z,10.24
2022-09-28T17:48:34.344Z,10.22
2022-09-28T17:51:38.722Z,10.18
2022-09-28T17:54:42.870Z,10.10
2022-09-28T17:57:47.091Z,10.11
2022-09-28T18:00:51.694Z,9.98
2022-09-28T18:03:55.854Z,9.97
2022-09-28T18:07:00.131Z,9.98
2022-09-28T18:10:06.501Z,10.01
2022-09-28T18:13:11.415Z,10.04
2022-09-28T18:16:15.833Z,10.05
2022-09-28T18:19:20.198Z,10.10
2022-09-28T18:22:24.263Z,10.12
2022-09-28T18:25:29.633Z,10.16
2022-09-28T18:28:33.779Z,10.13
2022-09-28T18:31:38.024Z,10.09
2022-09-28T18:34:42.261Z,10.03
2022-09-28T18:37:46.092Z,10.01
2022-09-28T18:40:50.458Z,10.06
2022-09-28T18:44:00.586Z,10.06
2022-09-28T18:47:04.549Z,10.05
2022-09-28T18:50:09.681Z,10.04
2022-09-28T18:53:14.483Z,9.98
2022-09-28T18:56:19.154Z,9.92
2022-09-28T18:59:23.770Z,9.85
2022-09-28T19:02:28.010Z,9.77
2022-09-28T19:05:33.735Z,9.72
2022-09-28T19:08:37.723Z,9.67
2022-09-28T19:11:41.649Z,9.61
2022-09-28T19:14:45.760Z,9.55
2022-09-28T19:17:50.286Z,9.51
2022-09-28T19:20:54.294Z,9.47
2022-09-28T19:24:02.729Z,9.44
2022-09-28T19:27:06.678Z,9.42
2022-09-28T19:30:11.234Z,9.39
2022-09-28T19:33:17.444Z,9.36
2022-09-28T19:36:24.070Z,9.37
2022-09-28T19:39:27.967Z,9.33
2022-09-28T19:42:32.016Z,9.36
2022-09-28T19:45:36.306Z,9.32
2022-09-28T19:48:42.271Z,9.31
2022-09-28T19:55:14.599Z,9.38
2022-09-28T19:58:18.582Z,9.39
2022-09-28T20:01:22.429Z,9.39
2022-09-28T20:04:26.574Z,9.38
2022-09-28T20:07:32.935Z,9.41
2022-09-28T20:10:40.071Z,9.38
2022-09-28T20:13:44.859Z,9.39
2022-09-28T20:16:49.053Z,9.36
2022-09-28T20:19:53.093Z,9.37
2022-09-28T20:22:58.020Z,9.33
2022-09-28T20:26:07.163Z,9.26
2022-09-28T20:29:11.947Z,9.22
2022-09-28T20:32:16.270Z,9.19
2022-09-28T20:35:32.215Z,9.13
2022-09-28T20:38:40.535Z,9.10
2022-09-28T20:41:46.118Z,9.10
2022-09-28T20:44:50.295Z,9.02
2022-09-28T20:47:54.235Z,8.99
2022-09-28T20:51:03.887Z,8.94
2022-09-28T20:54:08.307Z,8.96
2022-09-28T20:57:18.365Z,8.91
2022-09-28T21:00:22.449Z,8.87
2022-09-28T21:03:26.959Z,8.87
2022-09-28T21:06:33.182Z,8.85
2022-09-28T21:09:37.705Z,8.82
2022-09-28T21:12:41.958Z,8.75
2022-09-28T21:15:46.742Z,8.73
2022-09-28T21:18:51.049Z,8.69
2022-09-28T21:21:55.542Z,8.69
2022-09-28T21:24:59.596Z,8.68
2022-09-28T21:28:03.457Z,8.65
2022-09-28T21:31:10.139Z,8.63
2022-09-28T21:34:20.262Z,8.61
2022-09-28T21:37:24.460Z,8.60
2022-09-28T21:40:29.075Z,8.57
2022-09-28T21:43:33.134Z,8.55
2022-09-28T21:46:38.801Z,8.53
2022-09-28T21:49:43.135Z,8.52
2022-09-28T21:52:47.009Z,8.48
2022-09-28T21:55:53.029Z,8.49
2022-09-28T21:58:57.117Z,8.41
2022-09-28T22:02:01.081Z,8.42
2022-09-28T22:05:06.546Z,8.44
2022-09-28T22:08:10.699Z,8.46
2022-09-28T22:11:20.482Z,8.40
2022-09-28T22:14:24.619Z,8.38
2022-09-28T22:17:28.637Z,8.39
2022-09-28T22:20:32.676Z,8.38
2022-09-28T22:23:37.922Z,8.40
2022-09-28T22:26:41.841Z,8.44
2022-09-28T22:29:46.194Z,8.46
2022-09-28T22:32:50.251Z,8.48
2022-09-28T22:35:54.937Z,8.48
2022-09-28T22:38:59.653Z,8.52
2022-09-28T22:42:03.470Z,8.48
2022-09-28T22:45:07.415Z,8.47
2022-09-28T22:48:12.226Z,8.53
2022-09-28T22:51:16.634Z,8.57
2022-09-28T22:54:21.499Z,8.57
2022-09-28T22:57:25.459Z,8.62
2022-09-28T23:00:30.624Z,8.57
2022-09-28T23:03:35.523Z,8.59
2022-09-28T23:06:40.002Z,8.61
2022-09-28T23:09:44.175Z,8.62
2022-09-28T23:12:48.216Z,8.67
2022-09-28T23:16:03.978Z,8.67
2022-09-28T23:19:08.105Z,8.64
2022-09-28T23:22:12.007Z,8.67
2022-09-28T23:25:17.653Z,8.71
2022-09-28T23:28:23.704Z,8.72
2022-09-28T23:31:30.501Z,8.69
2022-09-28T23:34:34.425Z,8.69
2022-09-28T23:37:38.623Z,8.67
2022-09-28T23:40:42.838Z,8.73
2022-09-28T23:43:46.917Z,8.78
2022-09-28T23:46:50.943Z,8.75
2022-09-28T23:49:55.103Z,8.78
2022-09-28T23:52:59.126Z,8.75
2022-09-28T23:56:02.941Z,8.75
2022-09-28T23:59:07.452Z,8.75
